sensor_id;sensor_type;location;lat;lon;timestamp;P1;durP1;ratioP1;P2;durP2;ratioP2
53411;SDS011;39307;52.870;13.660;2023-10-09T00:00:08;4.78;;;1.27;;
53411;SDS011;39307;52.870;13.660;2023-10-09T00:02:34;4.25;;;1.52;;
53411;SDS011;39307;52.870;13.660;2023-10-09T00:05:00;4.53;;;1.52;;
53411;SDS011;39307;52.870;13.660;2023-10-09T00:07:27;4.28;;;1.55;;
53411;SDS011;39307;52.870;13.660;2023-10-09T00:09:53;3.70;;;1.50;;
53411;SDS011;39307;52.870;13.660;2023-10-09T00:12:20;3.77;;;1.40;;
53411;SDS011;39307;52.870;13.660;2023-10-09T00:14:46;4.90;;;1.65;;
53411;SDS011;39307;52.870;13.660;2023-10-09T00:17:16;5.05;;;1.48;;
53411;SDS011;39307;52.870;13.660;2023-10-09T00:19:46;4.03;;;1.43;;
53411;SDS011;39307;52.870;13.660;2023-10-09T00:22:12;4.72;;;1.30;;
53411;SDS011;39307;52.870;13.660;2023-10-09T00:24:39;3.40;;;1.30;;
53411;SDS011;39307;52.870;13.660;2023-10-09T00:27:05;3.50;;;1.52;;
53411;SDS011;39307;52.870;13.660;2023-10-09T00:29:32;4.32;;;1.52;;
53411;SDS011;39307;52.870;13.660;2023-10-09T00:31:58;4.63;;;1.60;;
53411;SDS011;39307;52.870;13.660;2023-10-09T00:34:24;4.15;;;1.40;;
53411;SDS011;39307;52.870;13.660;2023-10-09T00:36:50;4.10;;;1.40;;
53411;SDS011;39307;52.870;13.660;2023-10-09T00:39:17;3.30;;;1.30;;
53411;SDS011;39307;52.870;13.660;2023-10-09T00:41:44;3.92;;;1.50;;
53411;SDS011;39307;52.870;13.660;2023-10-09T00:44:10;4.28;;;1.33;;
53411;SDS011;39307;52.870;13.660;2023-10-09T00:46:36;4.68;;;1.42;;
53411;SDS011;39307;52.870;13.660;2023-10-09T00:49:03;4.45;;;1.52;;
53411;SDS011;39307;52.870;13.660;2023-10-09T00:51:30;3.63;;;1.40;;
53411;SDS011;39307;52.870;13.660;2023-10-09T00:53:57;4.30;;;1.40;;
53411;SDS011;39307;52.870;13.660;2023-10-09T00:56:24;5.82;;;1.50;;
53411;SDS011;39307;52.870;13.660;2023-10-09T00:58:51;2.90;;;1.15;;
53411;SDS011;39307;52.870;13.660;2023-10-09T01:01:22;3.65;;;1.48;;
53411;SDS011;39307;52.870;13.660;2023-10-09T01:03:49;4.13;;;1.40;;
53411;SDS011;39307;52.870;13.660;2023-10-09T01:06:15;4.38;;;1.70;;
53411;SDS011;39307;52.870;13.660;2023-10-09T01:08:41;3.30;;;1.48;;
53411;SDS011;39307;52.870;13.660;2023-10-09T01:13:38;6.40;;;1.70;;
53411;SDS011;39307;52.870;13.660;2023-10-09T01:16:06;4.45;;;1.70;;
53411;SDS011;39307;52.870;13.660;2023-10-09T01:18:32;3.78;;;1.63;;
53411;SDS011;39307;52.870;13.660;2023-10-09T01:20:59;3.57;;;1.40;;
53411;SDS011;39307;52.870;13.660;2023-10-09T01:23:25;3.73;;;1.63;;
53411;SDS011;39307;52.870;13.660;2023-10-09T01:25:51;4.22;;;1.80;;
53411;SDS011;39307;52.870;13.660;2023-10-09T01:28:18;4.93;;;1.80;;
53411;SDS011;39307;52.870;13.660;2023-10-09T01:30:45;4.10;;;1.75;;
53411;SDS011;39307;52.870;13.660;2023-10-09T01:33:11;4.28;;;1.60;;
53411;SDS011;39307;52.870;13.660;2023-10-09T01:35:37;4.32;;;1.70;;
53411;SDS011;39307;52.870;13.660;2023-10-09T01:38:03;6.95;;;1.50;;
53411;SDS011;39307;52.870;13.660;2023-10-09T01:40:30;4.00;;;1.67;;
53411;SDS011;39307;52.870;13.660;2023-10-09T01:42:56;3.42;;;1.48;;
53411;SDS011;39307;52.870;13.660;2023-10-09T01:45:22;4.40;;;1.40;;
53411;SDS011;39307;52.870;13.660;2023-10-09T01:47:48;3.75;;;1.60;;
53411;SDS011;39307;52.870;13.660;2023-10-09T01:50:15;4.82;;;1.40;;
53411;SDS011;39307;52.870;13.660;2023-10-09T01:52:41;5.28;;;1.60;;
53411;SDS011;39307;52.870;13.660;2023-10-09T01:55:07;4.28;;;1.63;;
53411;SDS011;39307;52.870;13.660;2023-10-09T01:57:33;6.05;;;1.85;;
53411;SDS011;39307;52.870;13.660;2023-10-09T02:00:00;5.25;;;1.77;;
53411;SDS011;39307;52.870;13.660;2023-10-09T02:02:27;5.13;;;1.70;;
53411;SDS011;39307;52.870;13.660;2023-10-09T02:04:54;4.20;;;1.70;;
53411;SDS011;39307;52.870;13.660;2023-10-09T02:07:25;3.92;;;1.70;;
53411;SDS011;39307;52.870;13.660;2023-10-09T02:09:51;5.78;;;1.80;;
53411;SDS011;39307;52.870;13.660;2023-10-09T02:12:17;3.58;;;1.63;;
53411;SDS011;39307;52.870;13.660;2023-10-09T02:14:43;3.90;;;1.60;;
53411;SDS011;39307;52.870;13.660;2023-10-09T02:17:10;3.80;;;1.83;;
53411;SDS011;39307;52.870;13.660;2023-10-09T02:19:36;4.10;;;1.73;;
53411;SDS011;39307;52.870;13.660;2023-10-09T02:22:02;5.57;;;1.90;;
53411;SDS011;39307;52.870;13.660;2023-10-09T02:24:28;4.80;;;1.80;;
53411;SDS011;39307;52.870;13.660;2023-10-09T02:26:54;5.13;;;1.80;;
53411;SDS011;39307;52.870;13.660;2023-10-09T02:29:21;4.53;;;1.75;;
53411;SDS011;39307;52.870;13.660;2023-10-09T02:31:47;4.35;;;2.00;;
53411;SDS011;39307;52.870;13.660;2023-10-09T02:34:13;4.65;;;1.80;;
53411;SDS011;39307;52.870;13.660;2023-10-09T02:36:39;5.20;;;1.85;;
53411;SDS011;39307;52.870;13.660;2023-10-09T02:39:06;5.30;;;1.73;;
53411;SDS011;39307;52.870;13.660;2023-10-09T02:41:32;4.90;;;1.90;;
53411;SDS011;39307;52.870;13.660;2023-10-09T02:43:58;4.82;;;1.95;;
53411;SDS011;39307;52.870;13.660;2023-10-09T02:46:25;5.53;;;2.13;;
53411;SDS011;39307;52.870;13.660;2023-10-09T02:48:51;6.00;;;2.20;;
53411;SDS011;39307;52.870;13.660;2023-10-09T02:51:18;4.70;;;2.00;;
53411;SDS011;39307;52.870;13.660;2023-10-09T02:53:48;5.10;;;1.88;;
53411;SDS011;39307;52.870;13.660;2023-10-09T02:56:14;4.75;;;2.28;;
53411;SDS011;39307;52.870;13.660;2023-10-09T02:58:41;4.53;;;2.17;;
53411;SDS011;39307;52.870;13.660;2023-10-09T03:01:11;9.55;;;2.20;;
53411;SDS011;39307;52.870;13.660;2023-10-09T03:03:38;4.43;;;2.00;;
53411;SDS011;39307;52.870;13.660;2023-10-09T03:06:05;5.88;;;2.17;;
53411;SDS011;39307;52.870;13.660;2023-10-09T03:08:31;5.28;;;2.00;;
53411;SDS011;39307;52.870;13.660;2023-10-09T03:10:57;6.20;;;2.37;;
53411;SDS011;39307;52.870;13.660;2023-10-09T03:13:24;6.60;;;2.57;;
53411;SDS011;39307;52.870;13.660;2023-10-09T03:15:50;6.07;;;2.40;;
53411;SDS011;39307;52.870;13.660;2023-10-09T03:18:16;4.53;;;2.20;;
53411;SDS011;39307;52.870;13.660;2023-10-09T03:20:43;6.65;;;2.50;;
53411;SDS011;39307;52.870;13.660;2023-10-09T03:23:09;5.20;;;2.47;;
53411;SDS011;39307;52.870;13.660;2023-10-09T03:25:35;7.93;;;2.53;;
53411;SDS011;39307;52.870;13.660;2023-10-09T03:28:02;7.22;;;2.40;;
53411;SDS011;39307;52.870;13.660;2023-10-09T03:30:28;6.97;;;2.30;;
53411;SDS011;39307;52.870;13.660;2023-10-09T03:32:54;6.40;;;2.65;;
53411;SDS011;39307;52.870;13.660;2023-10-09T03:35:21;5.55;;;2.65;;
53411;SDS011;39307;52.870;13.660;2023-10-09T03:37:48;7.10;;;2.50;;
53411;SDS011;39307;52.870;13.660;2023-10-09T03:40:14;5.10;;;2.33;;
53411;SDS011;39307;52.870;13.660;2023-10-09T03:42:41;6.50;;;2.73;;
53411;SDS011;39307;52.870;13.660;2023-10-09T03:45:08;6.28;;;2.55;;
53411;SDS011;39307;52.870;13.660;2023-10-09T03:47:34;6.15;;;2.50;;
53411;SDS011;39307;52.870;13.660;2023-10-09T03:50:00;6.13;;;2.95;;
53411;SDS011;39307;52.870;13.660;2023-10-09T03:52:26;5.88;;;2.88;;
53411;SDS011;39307;52.870;13.660;2023-10-09T03:54:53;6.45;;;2.80;;
53411;SDS011;39307;52.870;13.660;2023-10-09T03:57:19;12.02;;;6.05;;
53411;SDS011;39307;52.870;13.660;2023-10-09T03:59:45;9.03;;;4.97;;
53411;SDS011;39307;52.870;13.660;2023-10-09T04:02:12;7.95;;;4.22;;
53411;SDS011;39307;52.870;13.660;2023-10-09T04:04:40;7.57;;;3.80;;
53411;SDS011;39307;52.870;13.660;2023-10-09T04:07:06;9.00;;;4.82;;
53411;SDS011;39307;52.870;13.660;2023-10-09T04:09:33;9.32;;;3.65;;
53411;SDS011;39307;52.870;13.660;2023-10-09T04:11:59;5.75;;;2.92;;
53411;SDS011;39307;52.870;13.660;2023-10-09T04:14:25;7.00;;;3.10;;
53411;SDS011;39307;52.870;13.660;2023-10-09T04:16:52;7.63;;;3.38;;
53411;SDS011;39307;52.870;13.660;2023-10-09T04:19:18;6.30;;;3.22;;
53411;SDS011;39307;52.870;13.660;2023-10-09T04:21:44;7.18;;;3.47;;
53411;SDS011;39307;52.870;13.660;2023-10-09T04:24:11;5.97;;;3.22;;
53411;SDS011;39307;52.870;13.660;2023-10-09T04:26:37;7.25;;;3.83;;
53411;SDS011;39307;52.870;13.660;2023-10-09T04:29:14;8.77;;;3.60;;
53411;SDS011;39307;52.870;13.660;2023-10-09T04:31:41;6.97;;;3.30;;
53411;SDS011;39307;52.870;13.660;2023-10-09T04:34:07;6.57;;;3.58;;
53411;SDS011;39307;52.870;13.660;2023-10-09T04:36:33;7.47;;;3.33;;
53411;SDS011;39307;52.870;13.660;2023-10-09T04:39:00;6.03;;;3.30;;
53411;SDS011;39307;52.870;13.660;2023-10-09T04:41:26;8.02;;;3.65;;
53411;SDS011;39307;52.870;13.660;2023-10-09T04:43:55;6.43;;;3.50;;
53411;SDS011;39307;52.870;13.660;2023-10-09T04:46:22;6.20;;;3.70;;
53411;SDS011;39307;52.870;13.660;2023-10-09T04:48:48;7.25;;;3.78;;
53411;SDS011;39307;52.870;13.660;2023-10-09T04:51:14;7.38;;;3.88;;
53411;SDS011;39307;52.870;13.660;2023-10-09T04:53:41;9.70;;;5.55;;
53411;SDS011;39307;52.870;13.660;2023-10-09T04:56:07;8.27;;;4.22;;
53411;SDS011;39307;52.870;13.660;2023-10-09T04:58:33;6.47;;;3.80;;
53411;SDS011;39307;52.870;13.660;2023-10-09T05:00:59;7.83;;;3.97;;
53411;SDS011;39307;52.870;13.660;2023-10-09T05:03:26;8.27;;;4.20;;
53411;SDS011;39307;52.870;13.660;2023-10-09T05:05:52;8.15;;;4.00;;
53411;SDS011;39307;52.870;13.660;2023-10-09T05:08:19;8.00;;;4.10;;
53411;SDS011;39307;52.870;13.660;2023-10-09T05:10:45;8.00;;;4.30;;
53411;SDS011;39307;52.870;13.660;2023-10-09T05:13:12;10.68;;;4.28;;
53411;SDS011;39307;52.870;13.660;2023-10-09T05:15:38;10.15;;;4.53;;
53411;SDS011;39307;52.870;13.660;2023-10-09T05:18:04;9.02;;;4.72;;
53411;SDS011;39307;52.870;13.660;2023-10-09T05:20:31;8.30;;;4.80;;
53411;SDS011;39307;52.870;13.660;2023-10-09T05:22:57;11.03;;;5.37;;
53411;SDS011;39307;52.870;13.660;2023-10-09T05:25:26;11.45;;;5.75;;
53411;SDS011;39307;52.870;13.660;2023-10-09T05:27:52;10.10;;;5.50;;
53411;SDS011;39307;52.870;13.660;2023-10-09T05:30:19;9.98;;;5.47;;
53411;SDS011;39307;52.870;13.660;2023-10-09T05:32:45;10.13;;;5.35;;
53411;SDS011;39307;52.870;13.660;2023-10-09T05:35:11;12.87;;;5.60;;
53411;SDS011;39307;52.870;13.660;2023-10-09T05:37:38;10.68;;;5.38;;
53411;SDS011;39307;52.870;13.660;2023-10-09T05:40:04;9.88;;;5.57;;
53411;SDS011;39307;52.870;13.660;2023-10-09T05:42:32;11.27;;;5.53;;
53411;SDS011;39307;52.870;13.660;2023-10-09T05:45:00;10.20;;;5.50;;
53411;SDS011;39307;52.870;13.660;2023-10-09T05:47:26;12.25;;;6.20;;
53411;SDS011;39307;52.870;13.660;2023-10-09T05:49:52;9.75;;;5.47;;
53411;SDS011;39307;52.870;13.660;2023-10-09T05:52:18;11.90;;;6.10;;
53411;SDS011;39307;52.870;13.660;2023-10-09T05:54:45;10.83;;;6.00;;
53411;SDS011;39307;52.870;13.660;2023-10-09T05:57:11;11.80;;;6.38;;
53411;SDS011;39307;52.870;13.660;2023-10-09T05:59:37;9.88;;;6.32;;
53411;SDS011;39307;52.870;13.660;2023-10-09T06:02:03;9.25;;;5.75;;
53411;SDS011;39307;52.870;13.660;2023-10-09T06:04:30;10.98;;;6.38;;
53411;SDS011;39307;52.870;13.660;2023-10-09T06:06:56;9.18;;;5.70;;
53411;SDS011;39307;52.870;13.660;2023-10-09T06:09:23;11.80;;;6.47;;
53411;SDS011;39307;52.870;13.660;2023-10-09T06:11:49;8.98;;;6.03;;
53411;SDS011;39307;52.870;13.660;2023-10-09T06:14:16;9.98;;;5.82;;
53411;SDS011;39307;52.870;13.660;2023-10-09T06:16:43;9.47;;;5.63;;
53411;SDS011;39307;52.870;13.660;2023-10-09T06:19:10;9.00;;;5.78;;
53411;SDS011;39307;52.870;13.660;2023-10-09T06:21:38;9.45;;;5.80;;
53411;SDS011;39307;52.870;13.660;2023-10-09T06:24:05;9.30;;;5.60;;
53411;SDS011;39307;52.870;13.660;2023-10-09T06:26:32;9.40;;;5.80;;
53411;SDS011;39307;52.870;13.660;2023-10-09T06:28:59;9.40;;;5.72;;
53411;SDS011;39307;52.870;13.660;2023-10-09T06:31:25;10.20;;;7.10;;
53411;SDS011;39307;52.870;13.660;2023-10-09T06:33:51;9.05;;;6.22;;
53411;SDS011;39307;52.870;13.660;2023-10-09T06:36:18;8.40;;;5.30;;
53411;SDS011;39307;52.870;13.660;2023-10-09T06:38:44;9.80;;;5.17;;
53411;SDS011;39307;52.870;13.660;2023-10-09T06:41:11;10.43;;;5.50;;
53411;SDS011;39307;52.870;13.660;2023-10-09T06:43:37;8.00;;;5.25;;
53411;SDS011;39307;52.870;13.660;2023-10-09T06:46:04;8.55;;;5.05;;
53411;SDS011;39307;52.870;13.660;2023-10-09T06:48:30;9.35;;;4.88;;
53411;SDS011;39307;52.870;13.660;2023-10-09T06:50:57;9.05;;;5.18;;
53411;SDS011;39307;52.870;13.660;2023-10-09T06:53:28;9.60;;;5.00;;
53411;SDS011;39307;52.870;13.660;2023-10-09T06:55:55;9.03;;;5.40;;
53411;SDS011;39307;52.870;13.660;2023-10-09T06:58:21;10.23;;;5.50;;
53411;SDS011;39307;52.870;13.660;2023-10-09T07:00:48;9.65;;;5.13;;
53411;SDS011;39307;52.870;13.660;2023-10-09T07:03:15;9.50;;;5.22;;
53411;SDS011;39307;52.870;13.660;2023-10-09T07:05:41;8.85;;;5.80;;
53411;SDS011;39307;52.870;13.660;2023-10-09T07:08:07;8.10;;;5.07;;
53411;SDS011;39307;52.870;13.660;2023-10-09T07:10:34;8.20;;;5.00;;
53411;SDS011;39307;52.870;13.660;2023-10-09T07:13:00;10.02;;;5.63;;
53411;SDS011;39307;52.870;13.660;2023-10-09T07:15:27;7.97;;;4.95;;
53411;SDS011;39307;52.870;13.660;2023-10-09T07:17:53;9.35;;;5.40;;
53411;SDS011;39307;52.870;13.660;2023-10-09T07:20:19;10.60;;;5.00;;
53411;SDS011;39307;52.870;13.660;2023-10-09T07:22:46;7.53;;;4.50;;
53411;SDS011;39307;52.870;13.660;2023-10-09T07:25:12;7.68;;;4.85;;
53411;SDS011;39307;52.870;13.660;2023-10-09T07:27:38;7.88;;;4.60;;
53411;SDS011;39307;52.870;13.660;2023-10-09T07:30:05;8.50;;;4.70;;
53411;SDS011;39307;52.870;13.660;2023-10-09T07:32:32;7.85;;;4.80;;
53411;SDS011;39307;52.870;13.660;2023-10-09T07:34:58;9.93;;;5.20;;
53411;SDS011;39307;52.870;13.660;2023-10-09T07:37:27;8.87;;;5.40;;
53411;SDS011;39307;52.870;13.660;2023-10-09T07:39:54;9.82;;;5.30;;
53411;SDS011;39307;52.870;13.660;2023-10-09T07:42:20;8.05;;;5.15;;
53411;SDS011;39307;52.870;13.660;2023-10-09T07:44:46;7.95;;;5.38;;
53411;SDS011;39307;52.870;13.660;2023-10-09T07:47:12;10.52;;;5.57;;
53411;SDS011;39307;52.870;13.660;2023-10-09T07:49:39;7.80;;;5.40;;
53411;SDS011;39307;52.870;13.660;2023-10-09T07:52:05;9.80;;;5.53;;
53411;SDS011;39307;52.870;13.660;2023-10-09T07:54:32;10.30;;;5.77;;
53411;SDS011;39307;52.870;13.660;2023-10-09T07:56:58;9.80;;;5.47;;
53411;SDS011;39307;52.870;13.660;2023-10-09T07:59:25;8.85;;;5.13;;
53411;SDS011;39307;52.870;13.660;2023-10-09T08:01:51;8.88;;;5.70;;
53411;SDS011;39307;52.870;13.660;2023-10-09T08:04:22;8.60;;;5.40;;
53411;SDS011;39307;52.870;13.660;2023-10-09T08:06:49;9.15;;;5.10;;
53411;SDS011;39307;52.870;13.660;2023-10-09T08:09:16;9.05;;;5.65;;
53411;SDS011;39307;52.870;13.660;2023-10-09T08:11:45;8.95;;;5.80;;
53411;SDS011;39307;52.870;13.660;2023-10-09T08:14:12;9.05;;;5.50;;
53411;SDS011;39307;52.870;13.660;2023-10-09T08:16:39;9.18;;;6.22;;
53411;SDS011;39307;52.870;13.660;2023-10-09T08:19:06;10.57;;;6.93;;
53411;SDS011;39307;52.870;13.660;2023-10-09T08:21:32;12.00;;;7.00;;
53411;SDS011;39307;52.870;13.660;2023-10-09T08:23:58;10.88;;;7.07;;
53411;SDS011;39307;52.870;13.660;2023-10-09T08:26:25;10.20;;;6.85;;
53411;SDS011;39307;52.870;13.660;2023-10-09T08:28:51;10.25;;;6.80;;
53411;SDS011;39307;52.870;13.660;2023-10-09T08:31:17;9.73;;;6.70;;
53411;SDS011;39307;52.870;13.660;2023-10-09T08:33:47;11.70;;;6.65;;
53411;SDS011;39307;52.870;13.660;2023-10-09T08:36:14;10.70;;;7.70;;
53411;SDS011;39307;52.870;13.660;2023-10-09T08:38:40;9.70;;;7.32;;
53411;SDS011;39307;52.870;13.660;2023-10-09T08:41:07;10.88;;;7.68;;
53411;SDS011;39307;52.870;13.660;2023-10-09T08:43:37;10.90;;;7.20;;
53411;SDS011;39307;52.870;13.660;2023-10-09T08:46:06;11.00;;;6.95;;
53411;SDS011;39307;52.870;13.660;2023-10-09T08:48:32;10.87;;;7.40;;
53411;SDS011;39307;52.870;13.660;2023-10-09T08:50:59;12.35;;;8.23;;
53411;SDS011;39307;52.870;13.660;2023-10-09T08:53:26;11.48;;;7.45;;
53411;SDS011;39307;52.870;13.660;2023-10-09T08:55:53;11.93;;;7.90;;
53411;SDS011;39307;52.870;13.660;2023-10-09T08:58:19;11.53;;;7.93;;
53411;SDS011;39307;52.870;13.660;2023-10-09T09:00:45;13.48;;;7.80;;
53411;SDS011;39307;52.870;13.660;2023-10-09T09:03:16;11.43;;;7.45;;
53411;SDS011;39307;52.870;13.660;2023-10-09T09:05:46;11.30;;;7.07;;
53411;SDS011;39307;52.870;13.660;2023-10-09T09:08:25;14.25;;;10.43;;
53411;SDS011;39307;52.870;13.660;2023-10-09T09:11:00;10.98;;;7.53;;
53411;SDS011;39307;52.870;13.660;2023-10-09T09:13:27;10.85;;;7.28;;
53411;SDS011;39307;52.870;13.660;2023-10-09T09:15:53;12.20;;;7.10;;
53411;SDS011;39307;52.870;13.660;2023-10-09T09:18:20;9.98;;;7.15;;
53411;SDS011;39307;52.870;13.660;2023-10-09T09:20:46;10.52;;;7.35;;
53411;SDS011;39307;52.870;13.660;2023-10-09T09:23:12;11.55;;;7.82;;
53411;SDS011;39307;52.870;13.660;2023-10-09T09:25:43;11.73;;;7.40;;
53411;SDS011;39307;52.870;13.660;2023-10-09T09:28:14;10.63;;;8.18;;
53411;SDS011;39307;52.870;13.660;2023-10-09T09:30:41;11.38;;;8.02;;
53411;SDS011;39307;52.870;13.660;2023-10-09T09:33:23;11.63;;;7.72;;
53411;SDS011;39307;52.870;13.660;2023-10-09T09:35:56;11.30;;;7.80;;
53411;SDS011;39307;52.870;13.660;2023-10-09T09:38:26;11.00;;;7.72;;
53411;SDS011;39307;52.870;13.660;2023-10-09T09:40:56;12.07;;;8.05;;
53411;SDS011;39307;52.870;13.660;2023-10-09T09:43:23;11.18;;;7.93;;
53411;SDS011;39307;52.870;13.660;2023-10-09T09:45:51;11.07;;;7.50;;
53411;SDS011;39307;52.870;13.660;2023-10-09T09:48:20;12.18;;;7.78;;
53411;SDS011;39307;52.870;13.660;2023-10-09T09:50:47;11.02;;;7.78;;
53411;SDS011;39307;52.870;13.660;2023-10-09T09:53:13;11.13;;;7.68;;
53411;SDS011;39307;52.870;13.660;2023-10-09T09:55:41;11.63;;;7.60;;
53411;SDS011;39307;52.870;13.660;2023-10-09T09:58:12;10.55;;;7.65;;
53411;SDS011;39307;52.870;13.660;2023-10-09T10:00:43;10.55;;;7.38;;
53411;SDS011;39307;52.870;13.660;2023-10-09T10:03:27;12.40;;;7.90;;
53411;SDS011;39307;52.870;13.660;2023-10-09T10:06:00;11.37;;;7.63;;
53411;SDS011;39307;52.870;13.660;2023-10-09T10:08:31;12.30;;;7.90;;
53411;SDS011;39307;52.870;13.660;2023-10-09T10:10:58;11.55;;;7.25;;
53411;SDS011;39307;52.870;13.660;2023-10-09T10:16:07;9.63;;;6.90;;
53411;SDS011;39307;52.870;13.660;2023-10-09T10:18:51;9.37;;;6.20;;
53411;SDS011;39307;52.870;13.660;2023-10-09T10:21:29;10.30;;;6.40;;
53411;SDS011;39307;52.870;13.660;2023-10-09T10:23:55;8.98;;;5.90;;
53411;SDS011;39307;52.870;13.660;2023-10-09T10:26:21;10.13;;;5.93;;
53411;SDS011;39307;52.870;13.660;2023-10-09T10:29:13;9.82;;;6.47;;
53411;SDS011;39307;52.870;13.660;2023-10-09T10:31:54;10.80;;;6.88;;
53411;SDS011;39307;52.870;13.660;2023-10-09T10:34:22;9.73;;;6.88;;
53411;SDS011;39307;52.870;13.660;2023-10-09T10:36:50;9.63;;;6.40;;
53411;SDS011;39307;52.870;13.660;2023-10-09T10:39:18;9.52;;;6.05;;
53411;SDS011;39307;52.870;13.660;2023-10-09T10:41:53;9.00;;;5.30;;
53411;SDS011;39307;52.870;13.660;2023-10-09T10:44:30;9.85;;;5.88;;
53411;SDS011;39307;52.870;13.660;2023-10-09T10:46:57;8.90;;;5.68;;
53411;SDS011;39307;52.870;13.660;2023-10-09T10:49:23;9.27;;;6.18;;
53411;SDS011;39307;52.870;13.660;2023-10-09T10:51:50;9.15;;;6.00;;
53411;SDS011;39307;52.870;13.660;2023-10-09T10:54:21;8.52;;;5.85;;
53411;SDS011;39307;52.870;13.660;2023-10-09T10:56:48;9.30;;;6.25;;
53411;SDS011;39307;52.870;13.660;2023-10-09T10:59:15;9.68;;;6.05;;
53411;SDS011;39307;52.870;13.660;2023-10-09T11:01:41;8.80;;;5.68;;
53411;SDS011;39307;52.870;13.660;2023-10-09T11:04:11;10.23;;;5.93;;
53411;SDS011;39307;52.870;13.660;2023-10-09T11:06:37;9.02;;;6.00;;
53411;SDS011;39307;52.870;13.660;2023-10-09T11:09:04;8.90;;;5.45;;
53411;SDS011;39307;52.870;13.660;2023-10-09T11:11:32;8.88;;;5.70;;
53411;SDS011;39307;52.870;13.660;2023-10-09T11:14:08;7.97;;;5.30;;
53411;SDS011;39307;52.870;13.660;2023-10-09T11:16:35;11.32;;;5.90;;
53411;SDS011;39307;52.870;13.660;2023-10-09T11:19:02;8.68;;;5.45;;
53411;SDS011;39307;52.870;13.660;2023-10-09T11:21:28;10.55;;;5.80;;
53411;SDS011;39307;52.870;13.660;2023-10-09T11:23:55;9.50;;;6.00;;
53411;SDS011;39307;52.870;13.660;2023-10-09T11:26:21;9.60;;;6.35;;
53411;SDS011;39307;52.870;13.660;2023-10-09T11:31:33;14.20;;;8.90;;
53411;SDS011;39307;52.870;13.660;2023-10-09T11:33:59;11.35;;;6.32;;
53411;SDS011;39307;52.870;13.660;2023-10-09T11:36:25;9.30;;;5.18;;
53411;SDS011;39307;52.870;13.660;2023-10-09T11:38:51;8.10;;;4.93;;
53411;SDS011;39307;52.870;13.660;2023-10-09T11:41:19;8.65;;;4.72;;
53411;SDS011;39307;52.870;13.660;2023-10-09T11:43:48;8.52;;;5.53;;
53411;SDS011;39307;52.870;13.660;2023-10-09T11:46:16;8.13;;;4.93;;
53411;SDS011;39307;52.870;13.660;2023-10-09T11:48:46;8.23;;;4.55;;
53411;SDS011;39307;52.870;13.660;2023-10-09T11:51:27;9.50;;;5.73;;
53411;SDS011;39307;52.870;13.660;2023-10-09T11:53:54;9.07;;;5.45;;
53411;SDS011;39307;52.870;13.660;2023-10-09T11:56:23;7.75;;;4.72;;
53411;SDS011;39307;52.870;13.660;2023-10-09T11:58:50;8.25;;;4.90;;
53411;SDS011;39307;52.870;13.660;2023-10-09T12:01:16;8.32;;;4.40;;
53411;SDS011;39307;52.870;13.660;2023-10-09T12:03:42;7.43;;;4.40;;
53411;SDS011;39307;52.870;13.660;2023-10-09T12:06:09;7.47;;;4.13;;
53411;SDS011;39307;52.870;13.660;2023-10-09T12:08:35;7.23;;;4.27;;
53411;SDS011;39307;52.870;13.660;2023-10-09T12:11:02;7.72;;;5.03;;
53411;SDS011;39307;52.870;13.660;2023-10-09T12:13:29;10.25;;;6.40;;
53411;SDS011;39307;52.870;13.660;2023-10-09T12:15:55;13.85;;;8.45;;
53411;SDS011;39307;52.870;13.660;2023-10-09T12:18:22;11.07;;;7.53;;
53411;SDS011;39307;52.870;13.660;2023-10-09T12:20:48;7.53;;;4.00;;
53411;SDS011;39307;52.870;13.660;2023-10-09T12:23:14;6.78;;;3.50;;
53411;SDS011;39307;52.870;13.660;2023-10-09T12:25:41;6.78;;;3.25;;
53411;SDS011;39307;52.870;13.660;2023-10-09T12:28:07;7.10;;;3.17;;
53411;SDS011;39307;52.870;13.660;2023-10-09T12:30:34;7.88;;;3.22;;
53411;SDS011;39307;52.870;13.660;2023-10-09T12:33:00;6.00;;;2.93;;
53411;SDS011;39307;52.870;13.660;2023-10-09T12:35:26;6.38;;;3.53;;
53411;SDS011;39307;52.870;13.660;2023-10-09T12:37:53;9.55;;;3.95;;
53411;SDS011;39307;52.870;13.660;2023-10-09T12:40:23;5.47;;;3.13;;
53411;SDS011;39307;52.870;13.660;2023-10-09T12:42:50;7.03;;;3.58;;
53411;SDS011;39307;52.870;13.660;2023-10-09T12:45:17;6.93;;;3.55;;
53411;SDS011;39307;52.870;13.660;2023-10-09T12:47:47;7.00;;;3.60;;
53411;SDS011;39307;52.870;13.660;2023-10-09T12:50:13;7.03;;;3.40;;
53411;SDS011;39307;52.870;13.660;2023-10-09T12:52:39;6.00;;;3.60;;
53411;SDS011;39307;52.870;13.660;2023-10-09T12:55:06;12.03;;;8.00;;
53411;SDS011;39307;52.870;13.660;2023-10-09T12:57:33;13.73;;;8.00;;
53411;SDS011;39307;52.870;13.660;2023-10-09T12:59:59;13.87;;;8.30;;
53411;SDS011;39307;52.870;13.660;2023-10-09T13:02:25;14.65;;;9.82;;
53411;SDS011;39307;52.870;13.660;2023-10-09T13:04:51;13.48;;;8.40;;
53411;SDS011;39307;52.870;13.660;2023-10-09T13:07:18;8.60;;;5.28;;
53411;SDS011;39307;52.870;13.660;2023-10-09T13:09:45;8.75;;;5.03;;
53411;SDS011;39307;52.870;13.660;2023-10-09T13:12:11;8.65;;;5.15;;
53411;SDS011;39307;52.870;13.660;2023-10-09T13:14:37;8.27;;;4.18;;
53411;SDS011;39307;52.870;13.660;2023-10-09T13:17:03;6.57;;;3.75;;
53411;SDS011;39307;52.870;13.660;2023-10-09T13:19:30;6.90;;;3.75;;
53411;SDS011;39307;52.870;13.660;2023-10-09T13:21:56;7.43;;;3.97;;
53411;SDS011;39307;52.870;13.660;2023-10-09T13:24:22;7.68;;;4.03;;
53411;SDS011;39307;52.870;13.660;2023-10-09T13:26:48;8.65;;;4.30;;
53411;SDS011;39307;52.870;13.660;2023-10-09T13:29:15;6.82;;;4.00;;
53411;SDS011;39307;52.870;13.660;2023-10-09T13:31:41;7.27;;;4.13;;
53411;SDS011;39307;52.870;13.660;2023-10-09T13:34:07;7.10;;;4.00;;
53411;SDS011;39307;52.870;13.660;2023-10-09T13:36:34;7.88;;;4.07;;
53411;SDS011;39307;52.870;13.660;2023-10-09T13:39:02;7.97;;;3.75;;
53411;SDS011;39307;52.870;13.660;2023-10-09T13:41:29;8.30;;;4.40;;
53411;SDS011;39307;52.870;13.660;2023-10-09T13:43:56;9.02;;;4.28;;
53411;SDS011;39307;52.870;13.660;2023-10-09T13:46:22;7.20;;;3.50;;
53411;SDS011;39307;52.870;13.660;2023-10-09T13:48:49;6.55;;;3.80;;
53411;SDS011;39307;52.870;13.660;2023-10-09T13:51:15;7.30;;;3.83;;
53411;SDS011;39307;52.870;13.660;2023-10-09T13:53:41;11.10;;;7.05;;
53411;SDS011;39307;52.870;13.660;2023-10-09T13:56:10;9.00;;;5.43;;
53411;SDS011;39307;52.870;13.660;2023-10-09T13:58:49;6.63;;;3.60;;
53411;SDS011;39307;52.870;13.660;2023-10-09T14:01:17;7.63;;;4.25;;
53411;SDS011;39307;52.870;13.660;2023-10-09T14:03:43;8.65;;;3.78;;
53411;SDS011;39307;52.870;13.660;2023-10-09T14:06:10;7.07;;;3.53;;
53411;SDS011;39307;52.870;13.660;2023-10-09T14:08:36;6.68;;;3.65;;
53411;SDS011;39307;52.870;13.660;2023-10-09T14:11:02;8.68;;;5.43;;
53411;SDS011;39307;52.870;13.660;2023-10-09T14:13:29;12.05;;;7.15;;
53411;SDS011;39307;52.870;13.660;2023-10-09T14:15:56;10.25;;;6.82;;
53411;SDS011;39307;52.870;13.660;2023-10-09T14:18:22;9.87;;;5.23;;
53411;SDS011;39307;52.870;13.660;2023-10-09T14:20:48;7.30;;;4.10;;
53411;SDS011;39307;52.870;13.660;2023-10-09T14:23:15;7.77;;;4.47;;
53411;SDS011;39307;52.870;13.660;2023-10-09T14:25:41;8.07;;;4.60;;
53411;SDS011;39307;52.870;13.660;2023-10-09T14:28:08;7.70;;;5.10;;
53411;SDS011;39307;52.870;13.660;2023-10-09T14:30:38;8.80;;;5.45;;
53411;SDS011;39307;52.870;13.660;2023-10-09T14:33:04;7.82;;;4.72;;
53411;SDS011;39307;52.870;13.660;2023-10-09T14:35:32;7.07;;;4.70;;
53411;SDS011;39307;52.870;13.660;2023-10-09T14:37:58;7.80;;;4.50;;